Latest Weather Observations for Mount Nowa Nowa

IDV60801

Issued at 12:31 am EST Saturday 29 August 2015 (issued every 30 minutes, with the page automatically refreshed every 10 minutes)

About weather observations | Map of weather stations | Latest weather observations for VIC | Other Formats
Station Details ID: 084144 Name: MOUNT NOWA NOWA Lat: -37.69 Lon: 148.09 Height: 350.0 m
Data from the previous 72 hours. | See also: Recent months at Mount Nowa Nowa
Date/Time
EST
Temp
°C
App
Temp
°C
Dew
Point
Rel
Hum
%
Delta-T
°C
Wind Press
QNH
hPa
Press
MSL
hPa
Rain
since 9 am
mm
Dir
 
Spd
km/h
Gust
km/h
Spd
kts
Gust
kts
29/12:30am 5.0 2.5 4.9 99 0.0 WSW 7 17 4 9 - - 14.4
29/12:00am 5.3 3.1 5.2 99 0.0 W 6 11 3 6 - - 14.2
 
Date/Time
EST
Temp
°C
App
Temp
°C
Dew
Point
Rel
Hum
%
Delta-T
°C
Wind Press
QNH
hPa
Press
MSL
hPa
Rain
since 9 am
mm
Dir
 
Spd
km/h
Gust
km/h
Spd
kts
Gust
kts
28/11:30pm 5.5 3.3 5.4 99 0.0 W 6 9 3 5 - - 14.2
28/11:00pm 5.8 3.7 5.7 99 0.0 W 6 9 3 5 - - 14.2
28/10:30pm 6.0 4.3 5.9 99 0.0 W 4 7 2 4 - - 13.6
28/10:00pm 6.3 4.7 6.2 99 0.0 WSW 4 9 2 5 - - 13.4
28/09:30pm 6.3 5.0 6.2 99 0.0 W 2 6 1 3 - - 13.0
28/09:00pm 6.2 4.9 6.1 99 0.0 W 2 6 1 3 - - 11.8
28/08:30pm 6.2 4.9 6.1 99 0.0 W 2 4 1 2 - - 11.6
28/08:00pm 6.6 5.4 6.5 99 0.0 W 2 6 1 3 - - 11.4
28/07:30pm 6.7 5.5 6.6 99 0.0 W 2 6 1 3 - - 11.4
28/07:00pm 6.7 5.2 6.6 99 0.0 WSW 4 6 2 3 - - 10.6
28/06:30pm 6.7 5.2 6.6 99 0.0 W 4 7 2 4 - - 10.0
28/06:00pm 6.8 5.3 6.7 99 0.0 W 4 6 2 3 - - 10.0
28/05:30pm 6.7 5.2 6.6 99 0.0 WSW 4 7 2 4 - - 10.0
28/05:00pm 6.8 4.7 6.7 99 0.0 SW 7 13 4 7 - - 9.6
28/04:30pm 7.6 5.9 7.5 99 0.0 SW 6 19 3 10 - - 8.4
28/04:00pm 7.6 5.9 7.5 99 0.0 SW 6 13 3 7 - - 7.6
28/03:30pm 7.4 5.6 7.3 99 0.0 SSW 6 11 3 6 - - 7.2
28/03:00pm 8.0 6.4 7.9 99 0.0 WSW 6 15 3 8 - - 3.8
28/02:30pm 8.1 6.5 8.0 99 0.0 W 6 11 3 6 - - 3.0
28/02:00pm 8.1 6.3 8.0 99 0.0 W 7 13 4 7 - - 2.6
28/01:30pm 8.0 6.2 7.9 99 0.0 W 7 15 4 8 - - 2.4
28/01:00pm 7.8 5.6 7.7 99 0.0 W 9 20 5 11 - - 2.4
28/12:30pm 7.8 5.6 7.7 99 0.0 WSW 9 17 5 9 - - 2.4
28/12:00pm 7.5 5.6 7.4 99 0.0 WSW 7 17 4 9 - - 1.8
28/11:30am 7.4 5.1 7.3 99 0.0 W 9 20 5 11 - - 1.2
28/11:00am 7.1 4.3 7.0 99 0.0 W 11 26 6 14 - - 0.8
28/10:30am 7.1 4.3 7.0 99 0.0 W 11 30 6 16 - - 0.6
28/10:00am 6.7 3.4 6.6 99 0.0 W 13 24 7 13 - - 0.4
28/09:30am 6.7 3.8 6.6 99 0.0 W 11 24 6 13 - - 0.2
28/09:00am 6.5 3.2 6.4 99 0.0 W 13 32 7 17 - - 39.4
28/08:30am 6.5 2.8 6.4 99 0.0 W 15 26 8 14 - - 39.2
28/08:00am 6.8 3.6 6.7 99 0.0 WSW 13 26 7 14 - - 38.6
28/07:30am 7.0 3.4 6.9 99 0.0 WSW 15 28 8 15 - - 38.4
28/07:00am 7.1 3.2 7.0 99 0.0 WSW 17 30 9 16 - - 38.4
28/06:30am 7.5 4.0 7.4 99 0.0 WSW 15 28 8 15 - - 38.2
28/06:00am 7.7 4.7 7.6 99 0.0 WSW 13 28 7 15 - - 37.8
28/05:30am 7.8 4.8 7.7 99 0.0 WSW 13 26 7 14 - - 36.6
28/05:00am 7.9 5.3 7.8 99 0.0 WSW 11 24 6 13 - - 34.8
28/04:30am 8.1 5.6 8.0 99 0.0 WSW 11 22 6 12 - - 32.2
28/04:00am 8.3 5.8 8.2 99 0.0 WSW 11 32 6 17 - - 30.0
28/03:30am 8.5 5.7 8.4 99 0.0 WSW 13 32 7 17 - - 29.2
28/03:00am 8.6 5.4 8.5 99 0.0 SW 15 33 8 18 - - 27.6
28/02:30am 8.9 6.5 8.8 99 0.0 WSW 11 22 6 12 - - 26.4
28/02:00am 9.0 6.7 8.9 99 0.0 WSW 11 30 6 16 - - 25.2
28/01:30am 8.8 6.8 8.7 99 0.0 SW 9 20 5 11 - - 25.2
28/01:00am 8.2 6.4 8.1 99 0.0 W 7 17 4 9 - - 25.2
28/12:30am 8.0 5.8 7.9 99 0.0 W 9 15 5 8 - - 24.2
28/12:00am 7.9 5.7 7.8 99 0.0 W 9 19 5 10 - - 22.6
 
Date/Time
EST
Temp
°C
App
Temp
°C
Dew
Point
Rel
Hum
%
Delta-T
°C
Wind Press
QNH
hPa
Press
MSL
hPa
Rain
since 9 am
mm
Dir
 
Spd
km/h
Gust
km/h
Spd
kts
Gust
kts
27/11:30pm 7.8 5.6 7.7 99 0.0 W 9 15 5 8 - - 21.0
27/11:00pm 7.7 5.4 7.6 99 0.0 W 9 17 5 9 - - 20.8
27/10:30pm 7.7 5.4 7.6 99 0.0 W 9 15 5 8 - - 20.0
27/10:00pm 7.7 5.4 7.6 99 0.0 W 9 17 5 9 - - 19.2
27/09:30pm 7.7 5.4 7.6 99 0.0 W 9 19 5 10 - - 18.4
27/09:00pm 7.7 5.8 7.6 99 0.0 W 7 13 4 7 - - 17.2
27/08:30pm 7.7 5.4 7.6 99 0.0 W 9 13 5 7 - - 16.8
27/08:00pm 7.7 5.8 7.6 99 0.0 W 7 15 4 8 - - 16.8
27/07:30pm 7.7 5.4 7.6 99 0.0 W 9 19 5 10 - - 16.8
27/07:00pm 7.7 5.4 7.6 99 0.0 W 9 19 5 10 - - 16.8
27/06:30pm 7.7 5.8 7.6 99 0.0 W 7 15 4 8 - - 16.8
27/06:00pm 7.8 5.9 7.5 98 0.1 W 7 13 4 7 - - 16.8
27/05:30pm 8.0 6.1 7.7 98 0.1 WSW 7 13 4 7 - - 16.8
27/05:00pm 8.2 6.6 7.9 98 0.1 WSW 6 13 3 7 - - 16.8
27/04:30pm 8.4 6.7 8.3 99 0.0 WSW 7 15 4 8 - - 16.8
27/04:00pm 8.6 6.6 8.5 99 0.0 WSW 9 17 5 9 - - 16.8
27/03:30pm 8.6 6.6 8.5 99 0.0 WSW 9 20 5 11 - - 16.8
27/03:00pm 8.6 6.2 8.5 99 0.0 WSW 11 20 6 11 - - 16.8
27/02:30pm 9.0 7.1 8.9 99 0.0 W 9 15 5 8 - - 16.8
27/02:00pm 9.1 6.8 9.0 99 0.0 W 11 24 6 13 - - 16.8
27/01:30pm 9.1 7.2 9.0 99 0.0 WSW 9 24 5 13 - - 16.8
27/01:00pm 8.9 6.9 8.8 99 0.0 W 9 17 5 9 - - 16.8
27/12:30pm 8.6 6.9 8.5 99 0.0 WSW 7 13 4 7 - - 16.6
27/12:00pm 8.6 7.5 8.5 99 0.0 WNW 4 9 2 5 - - 16.2
27/11:30am 8.2 6.1 8.1 99 0.0 WNW 9 15 5 8 - - 15.8
27/11:00am 8.1 6.3 8.0 99 0.0 WNW 7 11 4 6 - - 12.2
27/10:30am 8.0 5.4 7.9 99 0.0 NW 11 17 6 9 - - 8.6
27/10:00am 7.9 6.3 7.8 99 0.0 NW 6 9 3 5 - - 2.4
27/09:30am 8.2 7.3 7.9 98 0.1 WNW 2 4 1 2 - - 0.2
27/09:00am 8.7 8.4 8.6 99 0.0 CALM 0 0 0 0 - - 4.4
27/08:30am 8.0 6.7 7.7 98 0.1 NNW 4 6 2 3 - - 4.2
27/08:00am 8.0 7.5 7.7 98 0.1 CALM 0 0 0 0 - - 3.2
27/07:30am 8.0 7.1 7.7 98 0.1 NNW 2 2 1 1 - - 1.8
27/07:00am 8.1 7.6 7.7 97 0.2 CALM 0 0 0 0 - - 1.8
27/06:30am 8.6 7.4 8.2 97 0.2 E 4 4 2 2 - - 1.8
27/06:00am 8.6 7.5 8.3 98 0.1 E 4 6 2 3 - - 1.8
27/05:30am 8.6 7.5 8.3 98 0.1 E 4 6 2 3 - - 1.8
27/05:00am 8.6 7.5 8.3 98 0.1 E 4 6 2 3 - - 1.8
27/04:30am 8.4 7.2 8.0 97 0.2 E 4 6 2 3 - - 1.8
27/04:00am 8.6 7.4 8.2 97 0.2 E 4 6 2 3 - - 1.8
27/03:30am 8.8 7.3 8.4 97 0.2 E 6 7 3 4 - - 1.8
27/03:00am 8.9 7.4 8.6 98 0.1 ENE 6 7 3 4 - - 1.8
27/02:30am 8.7 7.2 8.3 97 0.2 E 6 11 3 6 - - 1.8
27/02:00am 9.0 7.4 8.7 98 0.1 ENE 7 9 4 5 - - 1.8
27/01:30am 8.7 7.6 8.4 98 0.1 NNE 4 7 2 4 - - 1.6
27/01:00am 8.9 7.4 8.6 98 0.1 ENE 6 9 3 5 - - 1.6
27/12:30am 8.7 7.0 8.4 98 0.1 E 7 9 4 5 - - 1.6
27/12:00am 9.0 7.4 8.7 98 0.1 E 7 9 4 5 - - 1.6
 
Date/Time
EST
Temp
°C
App
Temp
°C
Dew
Point
Rel
Hum
%
Delta-T
°C
Wind Press
QNH
hPa
Press
MSL
hPa
Rain
since 9 am
mm
Dir
 
Spd
km/h
Gust
km/h
Spd
kts
Gust
kts
26/11:30pm 9.1 7.5 8.8 98 0.1 E 7 15 4 8 - - 1.6
26/11:00pm 9.1 7.5 8.8 98 0.1 E 7 13 4 7 - - 1.6
26/10:30pm 9.1 7.5 8.6 97 0.2 E 7 9 4 5 - - 1.4
26/10:00pm 9.2 7.6 8.7 97 0.2 E 7 11 4 6 - - 1.4
26/09:30pm 9.1 7.6 8.6 97 0.2 E 6 9 3 5 - - 0.8
26/09:00pm 9.1 7.6 8.6 97 0.2 E 6 9 3 5 - - 0.4
26/08:30pm 9.1 7.4 8.5 96 0.3 E 7 13 4 7 - - 0.2
26/08:00pm 9.1 7.4 8.3 95 0.4 E 7 13 4 7 - - 0.0
26/07:30pm 9.1 7.4 8.3 95 0.4 E 7 13 4 7 - - 0.0
26/07:00pm 9.2 7.5 8.3 94 0.4 E 7 13 4 7 - - 0.0
26/06:30pm 9.4 8.3 8.3 93 0.5 E 4 7 2 4 - - 0.0
26/06:00pm 9.6 8.1 8.4 92 0.6 E 6 9 3 5 - - 0.0
26/05:30pm 9.9 8.8 8.5 91 0.7 E 4 7 2 4 - - 0.0
26/05:00pm 10.1 9.4 8.5 90 0.8 E 2 7 1 4 - - 0.0
26/04:30pm 10.2 9.1 8.5 89 0.8 E 4 7 2 4 - - 0.0
26/04:00pm 10.8 9.7 8.4 85 1.2 E 4 9 2 5 - - 0.0
26/03:30pm 11.5 10.9 8.9 84 1.3 ESE 2 7 1 4 - - 0.0
26/03:00pm 11.0 10.4 9.1 88 1.0 E 2 7 1 4 - - 0.0
26/02:30pm 12.1 11.0 8.6 79 1.8 ESE 4 9 2 5 - - 0.0
26/02:00pm 11.4 10.2 8.1 80 1.6 E 4 9 2 5 - - 0.0
26/01:30pm 11.3 10.1 8.0 80 1.6 ESE 4 9 2 5 - - 0.0
26/01:00pm 11.1 9.8 7.8 80 1.6 ESE 4 9 2 5 - - 0.0
26/12:30pm 11.3 9.8 8.3 82 1.5 E 6 11 3 6 - - 0.0
26/12:00pm 11.3 9.3 7.0 75 2.1 E 7 17 4 9 - - 0.0
26/11:30am 11.7 10.4 7.8 77 1.9 E 4 7 2 4 - - 0.0
26/11:00am 10.7 9.2 7.0 78 1.8 E 4 9 2 5 - - 0.0
26/10:30am 11.1 10.1 7.4 78 1.8 E 2 7 1 4 - - 0.0
26/10:00am 10.4 8.6 7.1 80 1.6 E 6 13 3 7 - - 0.0
26/09:30am 10.0 8.5 6.9 81 1.5 E 4 9 2 5 - - 0.0
26/09:00am 9.2 6.9 5.9 80 1.5 ENE 7 15 4 8 - - 0.8
26/08:30am 9.1 7.2 6.7 85 1.1 E 6 9 3 5 - - 0.8
26/08:00am 8.3 6.0 5.9 85 1.1 E 7 11 4 6 - - 0.8
26/07:30am 8.0 5.8 5.1 82 1.3 E 6 9 3 5 - - 0.8
26/07:00am 7.8 5.6 5.4 85 1.1 E 6 9 3 5 - - 0.8
26/06:30am 7.2 5.9 5.8 91 0.6 ENE 2 4 1 2 - - 0.8
26/06:00am 7.2 5.5 5.7 90 0.7 ENE 4 6 2 3 - - 0.8
26/05:30am 7.1 5.7 5.7 91 0.6 E 2 4 1 2 - - 0.8
26/05:00am 7.2 5.5 6.0 92 0.6 ENE 4 6 2 3 - - 0.8
26/04:30am 6.9 5.2 6.0 94 0.4 E 4 6 2 3 - - 0.8
26/04:00am 6.8 5.1 5.9 94 0.4 E 4 9 2 5 - - 0.8
26/03:30am 6.8 5.1 5.7 93 0.5 ESE 4 7 2 4 - - 0.8
26/03:00am 7.0 5.3 5.9 93 0.5 E 4 7 2 4 - - 0.8
26/02:30am 7.0 5.0 6.1 94 0.4 E 6 9 3 5 - - 0.8
26/02:00am 7.2 5.3 6.5 95 0.3 E 6 7 3 4 - - 0.8
26/01:30am 7.5 5.6 6.8 95 0.3 E 6 15 3 8 - - 0.8
26/01:00am 7.3 5.4 6.7 96 0.3 ESE 6 6 3 3 - - 0.8

Other Formats:

Comma delimited format used in spreadsheet applications
http://www.bom.gov.au/fwo/IDV60801/IDV60801.94930.axf

JavaScript Object Notation format (JSON) in row-major order
http://www.bom.gov.au/fwo/IDV60801/IDV60801.94930.json